sensor_id;sensor_type;location;lat;lon;timestamp;P1;durP1;ratioP1;P2;durP2;ratioP2
53801;SDS011;39709;53.334;6.534;2023-07-08T00:00:44;7.63;;;2.20;;
53801;SDS011;39709;53.334;6.534;2023-07-08T00:03:10;7.20;;;2.30;;
53801;SDS011;39709;53.334;6.534;2023-07-08T00:05:36;8.40;;;2.67;;
53801;SDS011;39709;53.334;6.534;2023-07-08T00:08:02;8.00;;;2.63;;
53801;SDS011;39709;53.334;6.534;2023-07-08T00:10:30;6.85;;;2.38;;
53801;SDS011;39709;53.334;6.534;2023-07-08T00:12:57;6.72;;;2.40;;
53801;SDS011;39709;53.334;6.534;2023-07-08T00:15:27;6.03;;;2.50;;
53801;SDS011;39709;53.334;6.534;2023-07-08T00:17:54;5.28;;;2.00;;
53801;SDS011;39709;53.334;6.534;2023-07-08T00:20:26;6.97;;;2.33;;
53801;SDS011;39709;53.334;6.534;2023-07-08T00:23:00;5.15;;;2.00;;
53801;SDS011;39709;53.334;6.534;2023-07-08T00:25:26;6.47;;;2.40;;
53801;SDS011;39709;53.334;6.534;2023-07-08T00:27:53;6.32;;;2.20;;
53801;SDS011;39709;53.334;6.534;2023-07-08T00:30:22;5.50;;;1.83;;
53801;SDS011;39709;53.334;6.534;2023-07-08T00:32:50;6.70;;;2.15;;
53801;SDS011;39709;53.334;6.534;2023-07-08T00:35:32;5.35;;;1.70;;
53801;SDS011;39709;53.334;6.534;2023-07-08T00:38:10;5.82;;;2.08;;
53801;SDS011;39709;53.334;6.534;2023-07-08T00:43:38;5.18;;;1.80;;
53801;SDS011;39709;53.334;6.534;2023-07-08T00:46:09;6.68;;;2.28;;
53801;SDS011;39709;53.334;6.534;2023-07-08T00:51:36;5.82;;;1.90;;
53801;SDS011;39709;53.334;6.534;2023-07-08T00:54:03;4.63;;;1.60;;
53801;SDS011;39709;53.334;6.534;2023-07-08T00:56:40;5.40;;;1.70;;
53801;SDS011;39709;53.334;6.534;2023-07-08T00:59:13;5.50;;;1.70;;
53801;SDS011;39709;53.334;6.534;2023-07-08T01:01:47;5.03;;;1.73;;
53801;SDS011;39709;53.334;6.534;2023-07-08T01:04:15;6.05;;;1.88;;
53801;SDS011;39709;53.334;6.534;2023-07-08T01:06:48;6.97;;;2.10;;
53801;SDS011;39709;53.334;6.534;2023-07-08T01:09:22;3.15;;;1.23;;
53801;SDS011;39709;53.334;6.534;2023-07-08T01:11:53;5.38;;;2.13;;
53801;SDS011;39709;53.334;6.534;2023-07-08T01:14:21;5.78;;;1.90;;
53801;SDS011;39709;53.334;6.534;2023-07-08T01:16:50;5.85;;;2.17;;
53801;SDS011;39709;53.334;6.534;2023-07-08T01:19:17;4.90;;;2.07;;
53801;SDS011;39709;53.334;6.534;2023-07-08T01:22:07;6.03;;;1.95;;
53801;SDS011;39709;53.334;6.534;2023-07-08T01:24:36;6.47;;;2.25;;
53801;SDS011;39709;53.334;6.534;2023-07-08T01:27:04;7.40;;;2.30;;
53801;SDS011;39709;53.334;6.534;2023-07-08T01:29:32;6.60;;;2.22;;
53801;SDS011;39709;53.334;6.534;2023-07-08T01:31:59;7.60;;;3.00;;
53801;SDS011;39709;53.334;6.534;2023-07-08T01:34:36;6.10;;;2.40;;
53801;SDS011;39709;53.334;6.534;2023-07-08T01:37:03;6.50;;;2.60;;
53801;SDS011;39709;53.334;6.534;2023-07-08T01:39:31;6.03;;;2.22;;
53801;SDS011;39709;53.334;6.534;2023-07-08T01:41:57;7.40;;;2.72;;
53801;SDS011;39709;53.334;6.534;2023-07-08T01:44:27;6.33;;;2.67;;
53801;SDS011;39709;53.334;6.534;2023-07-08T01:47:16;5.63;;;1.92;;
53801;SDS011;39709;53.334;6.534;2023-07-08T01:49:46;7.20;;;2.55;;
53801;SDS011;39709;53.334;6.534;2023-07-08T01:52:14;6.47;;;2.70;;
53801;SDS011;39709;53.334;6.534;2023-07-08T01:54:41;8.80;;;2.70;;
53801;SDS011;39709;53.334;6.534;2023-07-08T01:57:07;7.00;;;2.60;;
53801;SDS011;39709;53.334;6.534;2023-07-08T01:59:32;5.60;;;2.25;;
53801;SDS011;39709;53.334;6.534;2023-07-08T02:01:58;9.30;;;2.50;;
53801;SDS011;39709;53.334;6.534;2023-07-08T02:04:24;7.00;;;2.60;;
53801;SDS011;39709;53.334;6.534;2023-07-08T02:06:52;6.57;;;2.43;;
53801;SDS011;39709;53.334;6.534;2023-07-08T02:09:19;9.20;;;2.83;;
53801;SDS011;39709;53.334;6.534;2023-07-08T02:11:45;6.88;;;2.20;;
53801;SDS011;39709;53.334;6.534;2023-07-08T02:14:10;6.57;;;2.37;;
53801;SDS011;39709;53.334;6.534;2023-07-08T02:16:36;6.67;;;1.87;;
53801;SDS011;39709;53.334;6.534;2023-07-08T02:19:02;5.97;;;1.70;;
53801;SDS011;39709;53.334;6.534;2023-07-08T02:21:27;6.93;;;1.83;;
53801;SDS011;39709;53.334;6.534;2023-07-08T02:23:56;6.28;;;2.42;;
53801;SDS011;39709;53.334;6.534;2023-07-08T02:26:23;7.18;;;2.40;;
53801;SDS011;39709;53.334;6.534;2023-07-08T02:28:49;6.68;;;2.20;;
53801;SDS011;39709;53.334;6.534;2023-07-08T02:31:14;7.57;;;2.90;;
53801;SDS011;39709;53.334;6.534;2023-07-08T02:33:40;7.03;;;2.60;;
53801;SDS011;39709;53.334;6.534;2023-07-08T02:36:06;5.93;;;2.73;;
53801;SDS011;39709;53.334;6.534;2023-07-08T02:38:32;6.82;;;2.63;;
53801;SDS011;39709;53.334;6.534;2023-07-08T02:40:57;6.50;;;2.67;;
53801;SDS011;39709;53.334;6.534;2023-07-08T02:43:23;7.43;;;3.00;;
53801;SDS011;39709;53.334;6.534;2023-07-08T02:45:52;7.20;;;2.80;;
53801;SDS011;39709;53.334;6.534;2023-07-08T02:48:18;4.72;;;1.77;;
53801;SDS011;39709;53.334;6.534;2023-07-08T02:50:44;5.63;;;1.80;;
53801;SDS011;39709;53.334;6.534;2023-07-08T02:53:11;6.50;;;2.45;;
53801;SDS011;39709;53.334;6.534;2023-07-08T02:55:38;7.10;;;2.88;;
53801;SDS011;39709;53.334;6.534;2023-07-08T02:58:04;7.13;;;3.23;;
53801;SDS011;39709;53.334;6.534;2023-07-08T03:00:29;7.38;;;2.75;;
53801;SDS011;39709;53.334;6.534;2023-07-08T03:02:55;8.93;;;3.13;;
53801;SDS011;39709;53.334;6.534;2023-07-08T03:05:21;7.38;;;3.20;;
53801;SDS011;39709;53.334;6.534;2023-07-08T03:07:46;7.00;;;2.90;;
53801;SDS011;39709;53.334;6.534;2023-07-08T03:10:12;6.80;;;3.27;;
53801;SDS011;39709;53.334;6.534;2023-07-08T03:12:38;6.32;;;2.95;;
53801;SDS011;39709;53.334;6.534;2023-07-08T03:15:04;9.37;;;3.10;;
53801;SDS011;39709;53.334;6.534;2023-07-08T03:17:30;7.38;;;3.53;;
53801;SDS011;39709;53.334;6.534;2023-07-08T03:19:55;6.90;;;2.97;;
53801;SDS011;39709;53.334;6.534;2023-07-08T03:22:21;7.80;;;3.20;;
53801;SDS011;39709;53.334;6.534;2023-07-08T03:24:47;6.40;;;2.88;;
53801;SDS011;39709;53.334;6.534;2023-07-08T03:27:13;7.20;;;2.90;;
53801;SDS011;39709;53.334;6.534;2023-07-08T03:29:39;7.55;;;3.15;;
53801;SDS011;39709;53.334;6.534;2023-07-08T03:32:06;6.18;;;2.75;;
53801;SDS011;39709;53.334;6.534;2023-07-08T03:34:36;5.37;;;2.07;;
53801;SDS011;39709;53.334;6.534;2023-07-08T03:37:03;4.30;;;1.33;;
53801;SDS011;39709;53.334;6.534;2023-07-08T03:39:29;4.82;;;1.25;;
53801;SDS011;39709;53.334;6.534;2023-07-08T03:41:56;7.07;;;1.80;;
53801;SDS011;39709;53.334;6.534;2023-07-08T03:44:22;5.72;;;1.50;;
53801;SDS011;39709;53.334;6.534;2023-07-08T03:46:49;5.93;;;2.10;;
53801;SDS011;39709;53.334;6.534;2023-07-08T03:49:15;4.78;;;1.58;;
53801;SDS011;39709;53.334;6.534;2023-07-08T03:51:44;3.55;;;0.98;;
53801;SDS011;39709;53.334;6.534;2023-07-08T03:54:11;8.70;;;2.77;;
53801;SDS011;39709;53.334;6.534;2023-07-08T03:56:38;5.47;;;2.00;;
53801;SDS011;39709;53.334;6.534;2023-07-08T03:59:04;3.83;;;1.38;;
53801;SDS011;39709;53.334;6.534;2023-07-08T04:01:29;4.30;;;1.27;;
53801;SDS011;39709;53.334;6.534;2023-07-08T04:03:56;2.88;;;0.90;;
53801;SDS011;39709;53.334;6.534;2023-07-08T04:06:23;4.30;;;1.70;;
53801;SDS011;39709;53.334;6.534;2023-07-08T04:08:49;5.25;;;1.70;;
53801;SDS011;39709;53.334;6.534;2023-07-08T04:11:16;6.28;;;1.67;;
53801;SDS011;39709;53.334;6.534;2023-07-08T04:13:46;6.65;;;1.17;;
53801;SDS011;39709;53.334;6.534;2023-07-08T04:16:19;4.60;;;1.58;;
53801;SDS011;39709;53.334;6.534;2023-07-08T04:18:55;5.50;;;2.43;;
53801;SDS011;39709;53.334;6.534;2023-07-08T04:21:21;6.20;;;2.03;;
53801;SDS011;39709;53.334;6.534;2023-07-08T04:23:48;6.90;;;2.33;;
53801;SDS011;39709;53.334;6.534;2023-07-08T04:26:14;5.03;;;2.00;;
53801;SDS011;39709;53.334;6.534;2023-07-08T04:28:40;5.35;;;2.20;;
53801;SDS011;39709;53.334;6.534;2023-07-08T04:31:07;7.38;;;1.50;;
53801;SDS011;39709;53.334;6.534;2023-07-08T04:33:32;4.27;;;1.23;;
53801;SDS011;39709;53.334;6.534;2023-07-08T04:35:58;4.85;;;1.65;;
53801;SDS011;39709;53.334;6.534;2023-07-08T04:38:24;5.90;;;2.10;;
53801;SDS011;39709;53.334;6.534;2023-07-08T04:40:52;3.65;;;1.20;;
53801;SDS011;39709;53.334;6.534;2023-07-08T04:43:18;5.20;;;2.00;;
53801;SDS011;39709;53.334;6.534;2023-07-08T04:45:46;4.00;;;1.25;;
53801;SDS011;39709;53.334;6.534;2023-07-08T04:48:15;3.72;;;1.10;;
53801;SDS011;39709;53.334;6.534;2023-07-08T04:50:45;7.87;;;1.80;;
53801;SDS011;39709;53.334;6.534;2023-07-08T04:53:12;4.68;;;1.80;;
53801;SDS011;39709;53.334;6.534;2023-07-08T04:55:45;5.57;;;1.70;;
53801;SDS011;39709;53.334;6.534;2023-07-08T04:58:15;6.75;;;2.08;;
53801;SDS011;39709;53.334;6.534;2023-07-08T05:00:41;4.30;;;1.87;;
53801;SDS011;39709;53.334;6.534;2023-07-08T05:03:07;6.57;;;1.85;;
53801;SDS011;39709;53.334;6.534;2023-07-08T05:05:33;6.20;;;2.10;;
53801;SDS011;39709;53.334;6.534;2023-07-08T05:07:59;4.65;;;1.83;;
53801;SDS011;39709;53.334;6.534;2023-07-08T05:10:25;6.72;;;2.63;;
53801;SDS011;39709;53.334;6.534;2023-07-08T05:12:51;6.13;;;1.90;;
53801;SDS011;39709;53.334;6.534;2023-07-08T05:15:17;4.82;;;1.95;;
53801;SDS011;39709;53.334;6.534;2023-07-08T05:17:43;5.00;;;1.70;;
53801;SDS011;39709;53.334;6.534;2023-07-08T05:20:09;6.50;;;2.20;;
53801;SDS011;39709;53.334;6.534;2023-07-08T05:22:38;5.53;;;1.63;;
53801;SDS011;39709;53.334;6.534;2023-07-08T05:25:04;7.50;;;2.50;;
53801;SDS011;39709;53.334;6.534;2023-07-08T05:27:31;5.05;;;1.73;;
53801;SDS011;39709;53.334;6.534;2023-07-08T05:29:59;6.43;;;2.23;;
53801;SDS011;39709;53.334;6.534;2023-07-08T05:32:25;4.97;;;1.83;;
53801;SDS011;39709;53.334;6.534;2023-07-08T05:34:52;4.28;;;1.02;;
53801;SDS011;39709;53.334;6.534;2023-07-08T05:37:18;4.13;;;1.33;;
53801;SDS011;39709;53.334;6.534;2023-07-08T05:39:46;6.13;;;1.73;;
53801;SDS011;39709;53.334;6.534;2023-07-08T05:42:12;4.47;;;1.53;;
53801;SDS011;39709;53.334;6.534;2023-07-08T05:44:37;4.20;;;1.45;;
53801;SDS011;39709;53.334;6.534;2023-07-08T05:47:03;4.50;;;1.30;;
53801;SDS011;39709;53.334;6.534;2023-07-08T05:49:29;5.30;;;1.88;;
53801;SDS011;39709;53.334;6.534;2023-07-08T05:51:55;3.27;;;1.17;;
53801;SDS011;39709;53.334;6.534;2023-07-08T05:54:20;3.65;;;1.40;;
53801;SDS011;39709;53.334;6.534;2023-07-08T05:56:46;5.23;;;1.70;;
53801;SDS011;39709;53.334;6.534;2023-07-08T05:59:12;5.45;;;1.80;;
53801;SDS011;39709;53.334;6.534;2023-07-08T06:01:37;3.63;;;1.33;;
53801;SDS011;39709;53.334;6.534;2023-07-08T06:04:03;4.87;;;1.73;;
53801;SDS011;39709;53.334;6.534;2023-07-08T06:06:29;5.20;;;1.50;;
53801;SDS011;39709;53.334;6.534;2023-07-08T06:08:55;4.72;;;1.90;;
53801;SDS011;39709;53.334;6.534;2023-07-08T06:11:20;3.17;;;1.20;;
53801;SDS011;39709;53.334;6.534;2023-07-08T06:13:47;4.10;;;1.52;;
53801;SDS011;39709;53.334;6.534;2023-07-08T06:16:13;4.43;;;1.40;;
53801;SDS011;39709;53.334;6.534;2023-07-08T06:18:39;3.43;;;1.43;;
53801;SDS011;39709;53.334;6.534;2023-07-08T06:21:05;3.80;;;1.50;;
53801;SDS011;39709;53.334;6.534;2023-07-08T06:23:31;4.10;;;1.58;;
53801;SDS011;39709;53.334;6.534;2023-07-08T06:25:57;3.85;;;1.33;;
53801;SDS011;39709;53.334;6.534;2023-07-08T06:28:22;5.43;;;1.60;;
53801;SDS011;39709;53.334;6.534;2023-07-08T06:30:48;7.35;;;2.22;;
53801;SDS011;39709;53.334;6.534;2023-07-08T06:33:14;4.17;;;1.53;;
53801;SDS011;39709;53.334;6.534;2023-07-08T06:35:40;5.80;;;1.90;;
53801;SDS011;39709;53.334;6.534;2023-07-08T06:38:07;4.93;;;1.55;;
53801;SDS011;39709;53.334;6.534;2023-07-08T06:40:33;3.97;;;1.25;;
53801;SDS011;39709;53.334;6.534;2023-07-08T06:42:59;5.75;;;1.55;;
53801;SDS011;39709;53.334;6.534;2023-07-08T06:45:25;3.73;;;1.40;;
53801;SDS011;39709;53.334;6.534;2023-07-08T06:47:51;4.60;;;1.70;;
53801;SDS011;39709;53.334;6.534;2023-07-08T06:50:16;5.60;;;2.23;;
53801;SDS011;39709;53.334;6.534;2023-07-08T06:52:42;5.65;;;1.73;;
53801;SDS011;39709;53.334;6.534;2023-07-08T06:55:08;5.43;;;1.90;;
53801;SDS011;39709;53.334;6.534;2023-07-08T06:57:35;5.28;;;1.75;;
53801;SDS011;39709;53.334;6.534;2023-07-08T07:00:06;4.85;;;1.90;;
53801;SDS011;39709;53.334;6.534;2023-07-08T07:02:33;3.47;;;1.13;;
53801;SDS011;39709;53.334;6.534;2023-07-08T07:04:59;4.73;;;1.70;;
53801;SDS011;39709;53.334;6.534;2023-07-08T07:07:25;3.67;;;1.38;;
53801;SDS011;39709;53.334;6.534;2023-07-08T07:09:51;5.78;;;1.58;;
53801;SDS011;39709;53.334;6.534;2023-07-08T07:12:18;5.33;;;1.47;;
53801;SDS011;39709;53.334;6.534;2023-07-08T07:14:44;4.07;;;1.80;;
53801;SDS011;39709;53.334;6.534;2023-07-08T07:17:10;3.37;;;1.30;;
53801;SDS011;39709;53.334;6.534;2023-07-08T07:19:35;7.35;;;2.40;;
53801;SDS011;39709;53.334;6.534;2023-07-08T07:22:01;7.57;;;1.40;;
53801;SDS011;39709;53.334;6.534;2023-07-08T07:24:27;4.88;;;1.80;;
53801;SDS011;39709;53.334;6.534;2023-07-08T07:26:53;3.57;;;1.37;;
53801;SDS011;39709;53.334;6.534;2023-07-08T07:29:21;3.95;;;1.58;;
53801;SDS011;39709;53.334;6.534;2023-07-08T07:31:47;4.35;;;1.70;;
53801;SDS011;39709;53.334;6.534;2023-07-08T07:34:13;2.83;;;1.23;;
53801;SDS011;39709;53.334;6.534;2023-07-08T07:36:39;5.10;;;1.95;;
53801;SDS011;39709;53.334;6.534;2023-07-08T07:39:05;7.35;;;2.08;;
53801;SDS011;39709;53.334;6.534;2023-07-08T07:41:31;4.37;;;1.90;;
53801;SDS011;39709;53.334;6.534;2023-07-08T07:43:57;4.95;;;1.70;;
53801;SDS011;39709;53.334;6.534;2023-07-08T07:46:22;5.10;;;2.23;;
53801;SDS011;39709;53.334;6.534;2023-07-08T07:48:48;4.88;;;1.58;;
53801;SDS011;39709;53.334;6.534;2023-07-08T07:51:14;5.57;;;1.53;;
53801;SDS011;39709;53.334;6.534;2023-07-08T07:53:40;4.40;;;1.77;;
53801;SDS011;39709;53.334;6.534;2023-07-08T07:56:06;11.35;;;1.67;;
53801;SDS011;39709;53.334;6.534;2023-07-08T07:58:32;4.90;;;1.30;;
53801;SDS011;39709;53.334;6.534;2023-07-08T08:00:58;5.75;;;1.90;;
53801;SDS011;39709;53.334;6.534;2023-07-08T08:03:24;5.05;;;2.00;;
53801;SDS011;39709;53.334;6.534;2023-07-08T08:05:50;5.10;;;2.20;;
53801;SDS011;39709;53.334;6.534;2023-07-08T08:08:15;3.70;;;1.10;;
53801;SDS011;39709;53.334;6.534;2023-07-08T08:10:41;5.20;;;1.33;;
53801;SDS011;39709;53.334;6.534;2023-07-08T08:13:08;3.40;;;1.25;;
53801;SDS011;39709;53.334;6.534;2023-07-08T08:15:34;4.43;;;1.52;;
53801;SDS011;39709;53.334;6.534;2023-07-08T08:18:00;4.07;;;1.50;;
53801;SDS011;39709;53.334;6.534;2023-07-08T08:20:27;4.05;;;1.42;;
53801;SDS011;39709;53.334;6.534;2023-07-08T08:22:53;4.10;;;1.43;;
53801;SDS011;39709;53.334;6.534;2023-07-08T08:25:20;4.82;;;1.42;;
53801;SDS011;39709;53.334;6.534;2023-07-08T08:27:48;5.75;;;1.40;;
53801;SDS011;39709;53.334;6.534;2023-07-08T08:30:15;4.97;;;1.40;;
53801;SDS011;39709;53.334;6.534;2023-07-08T08:32:40;5.10;;;1.73;;
53801;SDS011;39709;53.334;6.534;2023-07-08T08:35:06;5.95;;;2.10;;
53801;SDS011;39709;53.334;6.534;2023-07-08T08:37:32;4.90;;;2.00;;
53801;SDS011;39709;53.334;6.534;2023-07-08T08:39:58;6.43;;;2.20;;
53801;SDS011;39709;53.334;6.534;2023-07-08T08:42:34;5.30;;;2.00;;
53801;SDS011;39709;53.334;6.534;2023-07-08T08:45:05;4.65;;;1.75;;
53801;SDS011;39709;53.334;6.534;2023-07-08T08:47:40;4.43;;;1.67;;
53801;SDS011;39709;53.334;6.534;2023-07-08T08:50:21;4.35;;;1.52;;
53801;SDS011;39709;53.334;6.534;2023-07-08T08:53:03;4.57;;;1.45;;
53801;SDS011;39709;53.334;6.534;2023-07-08T08:55:31;5.80;;;1.80;;
53801;SDS011;39709;53.334;6.534;2023-07-08T09:00:24;5.15;;;1.80;;
53801;SDS011;39709;53.334;6.534;2023-07-08T09:03:12;3.63;;;1.30;;
53801;SDS011;39709;53.334;6.534;2023-07-08T09:05:42;4.45;;;1.48;;
53801;SDS011;39709;53.334;6.534;2023-07-08T09:08:20;5.47;;;1.60;;
53801;SDS011;39709;53.334;6.534;2023-07-08T09:11:01;4.40;;;1.73;;
53801;SDS011;39709;53.334;6.534;2023-07-08T09:13:50;3.70;;;1.40;;
53801;SDS011;39709;53.334;6.534;2023-07-08T09:19:12;4.40;;;1.77;;
53801;SDS011;39709;53.334;6.534;2023-07-08T09:22:31;4.85;;;1.80;;
53801;SDS011;39709;53.334;6.534;2023-07-08T09:25:03;3.58;;;1.33;;
53801;SDS011;39709;53.334;6.534;2023-07-08T09:27:52;3.95;;;1.40;;
53801;SDS011;39709;53.334;6.534;2023-07-08T09:30:22;4.07;;;1.30;;
53801;SDS011;39709;53.334;6.534;2023-07-08T09:32:50;5.53;;;2.03;;
53801;SDS011;39709;53.334;6.534;2023-07-08T09:35:17;4.35;;;1.98;;
53801;SDS011;39709;53.334;6.534;2023-07-08T09:37:48;5.13;;;1.83;;
53801;SDS011;39709;53.334;6.534;2023-07-08T09:40:19;4.23;;;1.70;;
53801;SDS011;39709;53.334;6.534;2023-07-08T09:42:55;6.68;;;2.60;;
53801;SDS011;39709;53.334;6.534;2023-07-08T09:45:45;4.22;;;1.60;;
53801;SDS011;39709;53.334;6.534;2023-07-08T09:48:20;5.28;;;1.98;;
53801;SDS011;39709;53.334;6.534;2023-07-08T09:50:51;6.28;;;2.35;;
53801;SDS011;39709;53.334;6.534;2023-07-08T09:53:18;3.67;;;1.47;;
53801;SDS011;39709;53.334;6.534;2023-07-08T09:55:45;5.35;;;1.88;;
53801;SDS011;39709;53.334;6.534;2023-07-08T09:58:12;5.53;;;2.42;;
53801;SDS011;39709;53.334;6.534;2023-07-08T10:00:43;4.03;;;1.67;;
53801;SDS011;39709;53.334;6.534;2023-07-08T10:03:24;5.95;;;1.92;;
53801;SDS011;39709;53.334;6.534;2023-07-08T10:05:54;4.20;;;1.97;;
53801;SDS011;39709;53.334;6.534;2023-07-08T10:08:23;4.90;;;1.65;;
53801;SDS011;39709;53.334;6.534;2023-07-08T10:14:23;4.05;;;1.60;;
53801;SDS011;39709;53.334;6.534;2023-07-08T10:16:56;3.92;;;1.35;;
53801;SDS011;39709;53.334;6.534;2023-07-08T10:19:22;5.87;;;2.20;;
53801;SDS011;39709;53.334;6.534;2023-07-08T10:29:53;4.07;;;1.37;;
53801;SDS011;39709;53.334;6.534;2023-07-08T10:32:44;4.20;;;1.48;;
53801;SDS011;39709;53.334;6.534;2023-07-08T10:41:09;4.50;;;1.65;;
53801;SDS011;39709;53.334;6.534;2023-07-08T10:47:03;4.25;;;1.35;;
53801;SDS011;39709;53.334;6.534;2023-07-08T10:52:50;5.85;;;2.08;;
53801;SDS011;39709;53.334;6.534;2023-07-08T11:03:33;4.72;;;1.67;;
53801;SDS011;39709;53.334;6.534;2023-07-08T11:06:14;7.07;;;1.85;;
53801;SDS011;39709;53.334;6.534;2023-07-08T11:08:57;4.15;;;1.60;;
53801;SDS011;39709;53.334;6.534;2023-07-08T11:14:11;4.30;;;1.48;;
53801;SDS011;39709;53.334;6.534;2023-07-08T11:16:46;5.05;;;2.00;;
53801;SDS011;39709;53.334;6.534;2023-07-08T11:19:41;6.25;;;2.08;;
53801;SDS011;39709;53.334;6.534;2023-07-08T11:22:11;5.00;;;2.42;;
53801;SDS011;39709;53.334;6.534;2023-07-08T11:24:49;3.73;;;1.67;;
53801;SDS011;39709;53.334;6.534;2023-07-08T11:27:21;4.07;;;1.48;;
53801;SDS011;39709;53.334;6.534;2023-07-08T11:29:53;3.92;;;1.77;;
53801;SDS011;39709;53.334;6.534;2023-07-08T11:32:23;4.20;;;1.73;;
53801;SDS011;39709;53.334;6.534;2023-07-08T11:34:52;3.95;;;1.80;;
53801;SDS011;39709;53.334;6.534;2023-07-08T11:37:20;4.30;;;1.77;;
53801;SDS011;39709;53.334;6.534;2023-07-08T11:42:43;5.32;;;2.13;;
53801;SDS011;39709;53.334;6.534;2023-07-08T11:45:35;3.83;;;1.55;;
53801;SDS011;39709;53.334;6.534;2023-07-08T11:50:57;4.27;;;1.67;;
53801;SDS011;39709;53.334;6.534;2023-07-08T11:55:58;4.70;;;2.40;;
53801;SDS011;39709;53.334;6.534;2023-07-08T11:58:30;4.00;;;1.70;;
53801;SDS011;39709;53.334;6.534;2023-07-08T12:01:28;5.88;;;1.55;;
53801;SDS011;39709;53.334;6.534;2023-07-08T12:04:01;4.60;;;1.77;;
53801;SDS011;39709;53.334;6.534;2023-07-08T12:06:44;4.50;;;1.90;;
53801;SDS011;39709;53.334;6.534;2023-07-08T12:09:23;4.97;;;2.10;;
53801;SDS011;39709;53.334;6.534;2023-07-08T12:11:53;5.03;;;1.67;;
53801;SDS011;39709;53.334;6.534;2023-07-08T12:14:22;6.57;;;1.90;;
53801;SDS011;39709;53.334;6.534;2023-07-08T12:16:48;5.43;;;2.20;;
53801;SDS011;39709;53.334;6.534;2023-07-08T12:19:16;5.13;;;2.00;;
53801;SDS011;39709;53.334;6.534;2023-07-08T12:21:44;4.85;;;1.83;;
53801;SDS011;39709;53.334;6.534;2023-07-08T12:24:11;3.60;;;1.40;;
53801;SDS011;39709;53.334;6.534;2023-07-08T12:26:38;6.07;;;2.22;;
53801;SDS011;39709;53.334;6.534;2023-07-08T12:29:05;4.88;;;1.73;;
53801;SDS011;39709;53.334;6.534;2023-07-08T12:31:31;5.93;;;2.17;;
53801;SDS011;39709;53.334;6.534;2023-07-08T12:33:58;4.50;;;2.07;;
53801;SDS011;39709;53.334;6.534;2023-07-08T12:36:25;4.13;;;1.95;;
53801;SDS011;39709;53.334;6.534;2023-07-08T12:38:54;4.10;;;1.60;;
53801;SDS011;39709;53.334;6.534;2023-07-08T12:43:48;5.27;;;1.90;;
53801;SDS011;39709;53.334;6.534;2023-07-08T12:46:16;5.05;;;1.90;;
53801;SDS011;39709;53.334;6.534;2023-07-08T12:48:43;5.75;;;2.45;;
53801;SDS011;39709;53.334;6.534;2023-07-08T12:51:13;4.82;;;1.95;;
53801;SDS011;39709;53.334;6.534;2023-07-08T12:53:48;4.03;;;1.70;;
53801;SDS011;39709;53.334;6.534;2023-07-08T12:56:15;4.77;;;1.83;;
53801;SDS011;39709;53.334;6.534;2023-07-08T12:58:46;4.57;;;2.00;;
53801;SDS011;39709;53.334;6.534;2023-07-08T13:01:25;5.05;;;2.15;;
53801;SDS011;39709;53.334;6.534;2023-07-08T13:03:54;6.80;;;2.45;;
53801;SDS011;39709;53.334;6.534;2023-07-08T13:06:25;5.25;;;2.22;;
53801;SDS011;39709;53.334;6.534;2023-07-08T13:08:54;3.87;;;1.60;;
53801;SDS011;39709;53.334;6.534;2023-07-08T13:11:29;4.82;;;2.17;;
53801;SDS011;39709;53.334;6.534;2023-07-08T13:13:56;6.05;;;2.20;;
53801;SDS011;39709;53.334;6.534;2023-07-08T13:16:29;5.68;;;2.08;;
53801;SDS011;39709;53.334;6.534;2023-07-08T13:18:57;4.17;;;1.57;;
53801;SDS011;39709;53.334;6.534;2023-07-08T13:21:23;3.72;;;1.55;;
53801;SDS011;39709;53.334;6.534;2023-07-08T13:23:49;3.97;;;1.67;;
53801;SDS011;39709;53.334;6.534;2023-07-08T13:26:16;4.87;;;2.00;;
53801;SDS011;39709;53.334;6.534;2023-07-08T13:28:44;4.47;;;1.88;;
53801;SDS011;39709;53.334;6.534;2023-07-08T13:31:21;4.22;;;1.77;;
53801;SDS011;39709;53.334;6.534;2023-07-08T13:33:49;4.63;;;2.03;;
53801;SDS011;39709;53.334;6.534;2023-07-08T13:36:18;5.80;;;2.38;;
53801;SDS011;39709;53.334;6.534;2023-07-08T13:38:48;4.43;;;1.63;;
53801;SDS011;39709;53.334;6.534;2023-07-08T13:41:21;5.47;;;2.05;;
53801;SDS011;39709;53.334;6.534;2023-07-08T13:43:48;5.55;;;2.90;;
53801;SDS011;39709;53.334;6.534;2023-07-08T13:46:36;4.55;;;2.17;;
53801;SDS011;39709;53.334;6.534;2023-07-08T13:49:07;6.25;;;2.45;;
53801;SDS011;39709;53.334;6.534;2023-07-08T13:54:38;3.60;;;1.52;;
53801;SDS011;39709;53.334;6.534;2023-07-08T13:57:11;4.25;;;1.92;;
53801;SDS011;39709;53.334;6.534;2023-07-08T13:59:39;7.15;;;2.75;;
53801;SDS011;39709;53.334;6.534;2023-07-08T14:02:13;4.30;;;1.77;;
53801;SDS011;39709;53.334;6.534;2023-07-08T14:04:47;5.72;;;2.45;;
53801;SDS011;39709;53.334;6.534;2023-07-08T14:07:18;5.78;;;2.10;;
53801;SDS011;39709;53.334;6.534;2023-07-08T14:09:48;5.85;;;2.70;;
53801;SDS011;39709;53.334;6.534;2023-07-08T14:12:14;5.03;;;2.30;;
53801;SDS011;39709;53.334;6.534;2023-07-08T14:14:39;4.57;;;1.83;;
53801;SDS011;39709;53.334;6.534;2023-07-08T14:17:08;6.07;;;2.30;;
53801;SDS011;39709;53.334;6.534;2023-07-08T14:19:37;5.22;;;2.05;;
53801;SDS011;39709;53.334;6.534;2023-07-08T14:22:15;5.43;;;2.30;;
53801;SDS011;39709;53.334;6.534;2023-07-08T14:24:51;5.18;;;2.45;;
53801;SDS011;39709;53.334;6.534;2023-07-08T14:27:17;4.90;;;2.03;;
53801;SDS011;39709;53.334;6.534;2023-07-08T14:29:45;6.85;;;3.42;;
53801;SDS011;39709;53.334;6.534;2023-07-08T14:32:13;5.53;;;2.95;;
53801;SDS011;39709;53.334;6.534;2023-07-08T14:34:55;6.63;;;3.13;;
53801;SDS011;39709;53.334;6.534;2023-07-08T14:37:24;5.65;;;2.88;;
53801;SDS011;39709;53.334;6.534;2023-07-08T14:39:50;5.77;;;2.70;;
53801;SDS011;39709;53.334;6.534;2023-07-08T14:42:17;5.68;;;2.33;;
53801;SDS011;39709;53.334;6.534;2023-07-08T14:44:45;4.22;;;1.95;;
53801;SDS011;39709;53.334;6.534;2023-07-08T14:47:15;5.88;;;2.72;;
53801;SDS011;39709;53.334;6.534;2023-07-08T14:49:42;5.67;;;2.67;;
53801;SDS011;39709;53.334;6.534;2023-07-08T14:52:08;6.03;;;3.05;;
53801;SDS011;39709;53.334;6.534;2023-07-08T14:54:33;5.70;;;2.60;;
53801;SDS011;39709;53.334;6.534;2023-07-08T14:56:59;5.93;;;2.07;;
53801;SDS011;39709;53.334;6.534;2023-07-08T14:59:28;6.90;;;2.90;;
53801;SDS011;39709;53.334;6.534;2023-07-08T15:01:57;5.95;;;2.63;;
53801;SDS011;39709;53.334;6.534;2023-07-08T15:04:24;5.22;;;2.10;;
53801;SDS011;39709;53.334;6.534;2023-07-08T15:06:49;5.93;;;2.10;;
53801;SDS011;39709;53.334;6.534;2023-07-08T15:09:17;7.50;;;3.00;;
53801;SDS011;39709;53.334;6.534;2023-07-08T15:11:43;5.43;;;2.35;;
53801;SDS011;39709;53.334;6.534;2023-07-08T15:14:43;6.07;;;3.30;;
53801;SDS011;39709;53.334;6.534;2023-07-08T15:17:01;6.32;;;3.28;;
53801;SDS011;39709;53.334;6.534;2023-07-08T15:19:33;6.57;;;2.63;;
53801;SDS011;39709;53.334;6.534;2023-07-08T15:22:00;7.53;;;3.17;;
53801;SDS011;39709;53.334;6.534;2023-07-08T15:24:26;8.18;;;3.53;;
53801;SDS011;39709;53.334;6.534;2023-07-08T15:26:51;6.97;;;3.67;;
53801;SDS011;39709;53.334;6.534;2023-07-08T15:29:21;6.22;;;2.90;;
53801;SDS011;39709;53.334;6.534;2023-07-08T15:31:48;8.48;;;4.00;;
53801;SDS011;39709;53.334;6.534;2023-07-08T15:34:14;4.73;;;1.90;;
53801;SDS011;39709;53.334;6.534;2023-07-08T15:36:42;6.13;;;2.58;;
53801;SDS011;39709;53.334;6.534;2023-07-08T15:39:08;5.70;;;3.00;;
53801;SDS011;39709;53.334;6.534;2023-07-08T15:41:34;6.30;;;3.15;;
53801;SDS011;39709;53.334;6.534;2023-07-08T15:44:00;6.35;;;3.28;;
53801;SDS011;39709;53.334;6.534;2023-07-08T15:46:28;5.75;;;2.80;;
53801;SDS011;39709;53.334;6.534;2023-07-08T15:48:57;7.93;;;3.17;;
53801;SDS011;39709;53.334;6.534;2023-07-08T15:51:22;7.10;;;3.40;;
53801;SDS011;39709;53.334;6.534;2023-07-08T15:53:48;5.90;;;2.95;;
53801;SDS011;39709;53.334;6.534;2023-07-08T15:56:15;5.23;;;2.50;;
53801;SDS011;39709;53.334;6.534;2023-07-08T15:58:44;6.38;;;2.70;;